sensor_id;sensor_type;location;lat;lon;timestamp;pressure;altitude;pressure_sealevel;temperature;humidity
64354;BME280;50681;53.334;-6.536;2023-02-28T00:00:10;103092.56;;;5.10;100.00
64354;BME280;50681;53.334;-6.536;2023-02-28T00:02:43;103104.19;;;5.17;100.00
64354;BME280;50681;53.334;-6.536;2023-02-28T00:05:10;103121.91;;;5.18;100.00
64354;BME280;50681;53.334;-6.536;2023-02-28T00:07:36;103127.38;;;5.25;100.00
64354;BME280;50681;53.334;-6.536;2023-02-28T00:10:10;103122.44;;;5.28;100.00
64354;BME280;50681;53.334;-6.536;2023-02-28T00:12:40;103100.88;;;5.15;100.00
64354;BME280;50681;53.334;-6.536;2023-02-28T00:15:09;103118.69;;;5.23;100.00
64354;BME280;50681;53.334;-6.536;2023-02-28T00:17:35;103125.97;;;5.29;100.00
64354;BME280;50681;53.334;-6.536;2023-02-28T00:20:06;103128.19;;;5.25;100.00
64354;BME280;50681;53.334;-6.536;2023-02-28T00:22:34;103136.47;;;5.30;100.00
64354;BME280;50681;53.334;-6.536;2023-02-28T00:25:03;103115.91;;;5.16;100.00
64354;BME280;50681;53.334;-6.536;2023-02-28T00:27:33;103132.41;;;5.35;100.00
64354;BME280;50681;53.334;-6.536;2023-02-28T00:29:58;103140.22;;;5.36;100.00
64354;BME280;50681;53.334;-6.536;2023-02-28T00:32:24;103120.72;;;5.21;100.00
64354;BME280;50681;53.334;-6.536;2023-02-28T00:34:50;103122.56;;;5.20;100.00
64354;BME280;50681;53.334;-6.536;2023-02-28T00:37:15;103122.94;;;5.17;100.00
64354;BME280;50681;53.334;-6.536;2023-02-28T00:39:41;103108.38;;;5.05;100.00
64354;BME280;50681;53.334;-6.536;2023-02-28T00:42:08;103118.97;;;5.13;100.00
64354;BME280;50681;53.334;-6.536;2023-02-28T00:44:33;103130.69;;;5.27;100.00
64354;BME280;50681;53.334;-6.536;2023-02-28T00:47:02;103127.09;;;5.20;100.00
64354;BME280;50681;53.334;-6.536;2023-02-28T00:49:30;103105.78;;;5.11;100.00
64354;BME280;50681;53.334;-6.536;2023-02-28T00:51:56;103136.22;;;5.25;100.00
64354;BME280;50681;53.334;-6.536;2023-02-28T00:54:22;103122.50;;;5.13;100.00
64354;BME280;50681;53.334;-6.536;2023-02-28T00:56:48;103116.13;;;5.14;100.00
64354;BME280;50681;53.334;-6.536;2023-02-28T00:59:17;103132.88;;;5.23;100.00
64354;BME280;50681;53.334;-6.536;2023-02-28T01:01:44;103109.75;;;5.15;100.00
64354;BME280;50681;53.334;-6.536;2023-02-28T01:04:10;103108.09;;;5.14;100.00
64354;BME280;50681;53.334;-6.536;2023-02-28T01:06:36;103111.13;;;5.11;100.00
64354;BME280;50681;53.334;-6.536;2023-02-28T01:09:05;103116.13;;;5.14;100.00
64354;BME280;50681;53.334;-6.536;2023-02-28T01:11:32;103126.72;;;5.23;100.00
64354;BME280;50681;53.334;-6.536;2023-02-28T01:13:58;103105.31;;;5.08;100.00
64354;BME280;50681;53.334;-6.536;2023-02-28T01:16:30;103117.41;;;5.19;100.00
64354;BME280;50681;53.334;-6.536;2023-02-28T01:18:56;103117.13;;;5.13;100.00
64354;BME280;50681;53.334;-6.536;2023-02-28T01:21:22;103139.34;;;5.29;100.00
64354;BME280;50681;53.334;-6.536;2023-02-28T01:23:49;103127.38;;;5.25;100.00
64354;BME280;50681;53.334;-6.536;2023-02-28T01:26:18;103129.78;;;5.20;100.00
64354;BME280;50681;53.334;-6.536;2023-02-28T01:28:45;103137.69;;;5.28;100.00
64354;BME280;50681;53.334;-6.536;2023-02-28T01:31:11;103109.09;;;5.13;100.00
64354;BME280;50681;53.334;-6.536;2023-02-28T01:33:37;103131.88;;;5.24;100.00
64354;BME280;50681;53.334;-6.536;2023-02-28T01:36:13;103137.22;;;5.24;100.00
64354;BME280;50681;53.334;-6.536;2023-02-28T01:38:39;103125.50;;;5.25;100.00
64354;BME280;50681;53.334;-6.536;2023-02-28T01:41:07;103107.34;;;5.06;100.00
64354;BME280;50681;53.334;-6.536;2023-02-28T01:46:08;103134.81;;;5.29;100.00
64354;BME280;50681;53.334;-6.536;2023-02-28T01:48:37;103122.00;;;5.25;100.00
64354;BME280;50681;53.334;-6.536;2023-02-28T01:51:20;103102.09;;;5.12;100.00
64354;BME280;50681;53.334;-6.536;2023-02-28T01:53:51;103152.22;;;5.40;100.00
64354;BME280;50681;53.334;-6.536;2023-02-28T01:56:22;103145.66;;;5.43;100.00
64354;BME280;50681;53.334;-6.536;2023-02-28T01:58:53;103139.03;;;5.39;100.00
64354;BME280;50681;53.334;-6.536;2023-02-28T02:01:22;103119.97;;;5.27;100.00
64354;BME280;50681;53.334;-6.536;2023-02-28T02:03:51;103134.31;;;5.41;100.00
64354;BME280;50681;53.334;-6.536;2023-02-28T02:06:22;103137.06;;;5.48;100.00
64354;BME280;50681;53.334;-6.536;2023-02-28T02:08:48;103134.97;;;5.43;100.00
64354;BME280;50681;53.334;-6.536;2023-02-28T02:11:17;103142.03;;;5.51;100.00
64354;BME280;50681;53.334;-6.536;2023-02-28T02:14:16;103125.91;;;5.44;100.00
64354;BME280;50681;53.334;-6.536;2023-02-28T02:28:09;103134.25;;;5.56;100.00
64354;BME280;50681;53.334;-6.536;2023-02-28T02:34:22;103135.72;;;5.37;100.00
64354;BME280;50681;53.334;-6.536;2023-02-28T02:39:41;103116.81;;;5.23;100.00
64354;BME280;50681;53.334;-6.536;2023-02-28T02:42:16;103137.28;;;5.31;100.00
64354;BME280;50681;53.334;-6.536;2023-02-28T02:44:59;103131.94;;;5.31;100.00
64354;BME280;50681;53.334;-6.536;2023-02-28T02:47:30;103120.09;;;5.19;100.00
64354;BME280;50681;53.334;-6.536;2023-02-28T02:49:59;103124.59;;;5.18;100.00
64354;BME280;50681;53.334;-6.536;2023-02-28T02:52:34;103126.72;;;5.23;100.00
64354;BME280;50681;53.334;-6.536;2023-02-28T02:55:03;103112.91;;;5.04;100.00
64354;BME280;50681;53.334;-6.536;2023-02-28T02:57:52;103111.78;;;5.13;100.00
64354;BME280;50681;53.334;-6.536;2023-02-28T03:00:29;103115.28;;;5.14;100.00
64354;BME280;50681;53.334;-6.536;2023-02-28T03:02:57;103130.84;;;5.25;100.00
64354;BME280;50681;53.334;-6.536;2023-02-28T03:05:30;103128.63;;;5.29;100.00
64354;BME280;50681;53.334;-6.536;2023-02-28T03:07:59;103116.56;;;5.18;100.00
64354;BME280;50681;53.334;-6.536;2023-02-28T03:13:44;103130.41;;;5.22;100.00
64354;BME280;50681;53.334;-6.536;2023-02-28T03:21:28;103149.81;;;5.24;100.00
64354;BME280;50681;53.334;-6.536;2023-02-28T03:26:34;103126.69;;;5.01;100.00
64354;BME280;50681;53.334;-6.536;2023-02-28T03:29:23;103151.19;;;5.20;100.00
64354;BME280;50681;53.334;-6.536;2023-02-28T03:31:57;103155.91;;;5.18;100.00
64354;BME280;50681;53.334;-6.536;2023-02-28T03:34:38;103148.91;;;5.17;100.00
64354;BME280;50681;53.334;-6.536;2023-02-28T03:37:15;103159.50;;;5.25;100.00
64354;BME280;50681;53.334;-6.536;2023-02-28T03:39:47;103135.63;;;5.08;100.00
64354;BME280;50681;53.334;-6.536;2023-02-28T03:42:18;103147.41;;;5.14;100.00
64354;BME280;50681;53.334;-6.536;2023-02-28T03:44:49;103147.72;;;5.04;100.00
64354;BME280;50681;53.334;-6.536;2023-02-28T03:47:20;103157.69;;;5.10;100.00
64354;BME280;50681;53.334;-6.536;2023-02-28T03:52:14;103133.69;;;5.02;100.00
64354;BME280;50681;53.334;-6.536;2023-02-28T03:54:47;103119.41;;;4.95;100.00
64354;BME280;50681;53.334;-6.536;2023-02-28T03:57:27;103140.72;;;5.03;100.00
64354;BME280;50681;53.334;-6.536;2023-02-28T03:59:57;103146.16;;;4.95;100.00
64354;BME280;50681;53.334;-6.536;2023-02-28T04:02:24;103154.19;;;4.95;100.00
64354;BME280;50681;53.334;-6.536;2023-02-28T04:04:50;103167.75;;;4.93;100.00
64354;BME280;50681;53.334;-6.536;2023-02-28T04:07:16;103170.91;;;4.97;100.00
64354;BME280;50681;53.334;-6.536;2023-02-28T04:09:42;103169.34;;;4.88;100.00
64354;BME280;50681;53.334;-6.536;2023-02-28T04:12:08;103185.03;;;4.91;100.00
64354;BME280;50681;53.334;-6.536;2023-02-28T04:14:34;103159.75;;;4.78;100.00
64354;BME280;50681;53.334;-6.536;2023-02-28T04:16:59;103164.00;;;4.73;100.00
64354;BME280;50681;53.334;-6.536;2023-02-28T04:19:25;103175.25;;;4.68;100.00
64354;BME280;50681;53.334;-6.536;2023-02-28T04:21:51;103184.22;;;4.75;100.00
64354;BME280;50681;53.334;-6.536;2023-02-28T04:24:27;103161.13;;;4.59;100.00
64354;BME280;50681;53.334;-6.536;2023-02-28T04:26:55;103194.28;;;4.73;100.00
64354;BME280;50681;53.334;-6.536;2023-02-28T04:29:26;103179.31;;;4.64;100.00
64354;BME280;50681;53.334;-6.536;2023-02-28T04:31:52;103184.56;;;4.57;100.00
64354;BME280;50681;53.334;-6.536;2023-02-28T04:34:19;103205.34;;;4.70;100.00
64354;BME280;50681;53.334;-6.536;2023-02-28T04:36:46;103202.84;;;4.68;100.00
64354;BME280;50681;53.334;-6.536;2023-02-28T04:39:15;103202.75;;;4.62;100.00
64354;BME280;50681;53.334;-6.536;2023-02-28T04:41:40;103190.56;;;4.59;100.00
64354;BME280;50681;53.334;-6.536;2023-02-28T04:44:05;103211.34;;;4.72;100.00
64354;BME280;50681;53.334;-6.536;2023-02-28T04:46:31;103190.09;;;4.55;100.00
64354;BME280;50681;53.334;-6.536;2023-02-28T04:49:05;103220.19;;;4.73;100.00
64354;BME280;50681;53.334;-6.536;2023-02-28T04:51:30;103214.75;;;4.66;100.00
64354;BME280;50681;53.334;-6.536;2023-02-28T04:54:01;103208.94;;;4.62;100.00
64354;BME280;50681;53.334;-6.536;2023-02-28T04:56:27;103197.13;;;4.56;100.00
64354;BME280;50681;53.334;-6.536;2023-02-28T04:58:52;103213.91;;;4.65;100.00
64354;BME280;50681;53.334;-6.536;2023-02-28T05:01:24;103225.53;;;4.73;100.00
64354;BME280;50681;53.334;-6.536;2023-02-28T05:03:51;103192.78;;;4.55;100.00
64354;BME280;50681;53.334;-6.536;2023-02-28T05:06:18;103223.72;;;4.73;100.00
64354;BME280;50681;53.334;-6.536;2023-02-28T05:08:45;103197.28;;;4.55;100.00
64354;BME280;50681;53.334;-6.536;2023-02-28T05:11:20;103204.50;;;4.54;100.00
64354;BME280;50681;53.334;-6.536;2023-02-28T05:13:47;103196.94;;;4.58;100.00
64354;BME280;50681;53.334;-6.536;2023-02-28T05:16:13;103220.19;;;4.73;100.00
64354;BME280;50681;53.334;-6.536;2023-02-28T05:18:39;103206.09;;;4.64;100.00
64354;BME280;50681;53.334;-6.536;2023-02-28T05:21:05;103177.09;;;4.52;100.00
64354;BME280;50681;53.334;-6.536;2023-02-28T05:23:30;103205.44;;;4.62;100.00
64354;BME280;50681;53.334;-6.536;2023-02-28T05:25:56;103209.78;;;4.63;100.00
64354;BME280;50681;53.334;-6.536;2023-02-28T05:28:21;103202.09;;;4.60;100.00
64354;BME280;50681;53.334;-6.536;2023-02-28T05:30:53;103228.06;;;4.74;100.00
64354;BME280;50681;53.334;-6.536;2023-02-28T05:33:18;103214.28;;;4.62;100.00
64354;BME280;50681;53.334;-6.536;2023-02-28T05:35:44;103204.59;;;4.61;100.00
64354;BME280;50681;53.334;-6.536;2023-02-28T05:38:09;103222.41;;;4.69;100.00
64354;BME280;50681;53.334;-6.536;2023-02-28T05:40:35;103217.16;;;4.61;100.00
64354;BME280;50681;53.334;-6.536;2023-02-28T05:43:00;103238.41;;;4.77;100.00
64354;BME280;50681;53.334;-6.536;2023-02-28T05:45:26;103224.25;;;4.68;100.00
64354;BME280;50681;53.334;-6.536;2023-02-28T05:47:55;103248.38;;;4.83;100.00
64354;BME280;50681;53.334;-6.536;2023-02-28T05:50:20;103229.25;;;4.71;100.00
64354;BME280;50681;53.334;-6.536;2023-02-28T05:52:50;103219.25;;;4.65;100.00
64354;BME280;50681;53.334;-6.536;2023-02-28T05:55:15;103250.41;;;4.81;100.00
64354;BME280;50681;53.334;-6.536;2023-02-28T05:57:41;103230.44;;;4.69;100.00
64354;BME280;50681;53.334;-6.536;2023-02-28T06:00:14;103229.81;;;4.67;100.00
64354;BME280;50681;53.334;-6.536;2023-02-28T06:02:41;103254.09;;;4.80;100.00
64354;BME280;50681;53.334;-6.536;2023-02-28T06:05:15;103252.59;;;4.78;100.00
64354;BME280;50681;53.334;-6.536;2023-02-28T06:07:41;103236.34;;;4.64;100.00
64354;BME280;50681;53.334;-6.536;2023-02-28T06:10:07;103249.91;;;4.78;100.00
64354;BME280;50681;53.334;-6.536;2023-02-28T06:12:32;103238.66;;;4.67;100.00
64354;BME280;50681;53.334;-6.536;2023-02-28T06:14:58;103268.13;;;4.82;100.00
64354;BME280;50681;53.334;-6.536;2023-02-28T06:17:23;103254.63;;;4.76;100.00
64354;BME280;50681;53.334;-6.536;2023-02-28T06:19:49;103250.94;;;4.77;100.00
64354;BME280;50681;53.334;-6.536;2023-02-28T06:22:14;103263.78;;;4.81;100.00
64354;BME280;50681;53.334;-6.536;2023-02-28T06:24:39;103255.28;;;4.78;100.00
64354;BME280;50681;53.334;-6.536;2023-02-28T06:27:05;103231.81;;;4.65;100.00
64354;BME280;50681;53.334;-6.536;2023-02-28T06:29:34;103250.78;;;4.78;100.00
64354;BME280;50681;53.334;-6.536;2023-02-28T06:32:00;103264.81;;;4.80;100.00
64354;BME280;50681;53.334;-6.536;2023-02-28T06:34:26;103255.00;;;4.73;100.00
64354;BME280;50681;53.334;-6.536;2023-02-28T06:36:52;103234.31;;;4.66;100.00
64354;BME280;50681;53.334;-6.536;2023-02-28T06:39:17;103249.84;;;4.71;100.00
64354;BME280;50681;53.334;-6.536;2023-02-28T06:41:43;103260.53;;;4.71;100.00
64354;BME280;50681;53.334;-6.536;2023-02-28T06:44:15;103249.56;;;4.66;100.00
64354;BME280;50681;53.334;-6.536;2023-02-28T06:46:43;103255.56;;;4.68;100.00
64354;BME280;50681;53.334;-6.536;2023-02-28T06:49:09;103239.28;;;4.54;100.00
64354;BME280;50681;53.334;-6.536;2023-02-28T06:51:36;103264.41;;;4.68;100.00
64354;BME280;50681;53.334;-6.536;2023-02-28T06:54:02;103267.63;;;4.64;100.00
64354;BME280;50681;53.334;-6.536;2023-02-28T06:56:27;103262.00;;;4.59;100.00
64354;BME280;50681;53.334;-6.536;2023-02-28T06:58:53;103268.00;;;4.61;100.00
64354;BME280;50681;53.334;-6.536;2023-02-28T07:01:19;103280.66;;;4.67;100.00
64354;BME280;50681;53.334;-6.536;2023-02-28T07:03:45;103262.06;;;4.50;100.00
64354;BME280;50681;53.334;-6.536;2023-02-28T07:06:12;103291.72;;;4.64;100.00
64354;BME280;50681;53.334;-6.536;2023-02-28T07:08:37;103294.75;;;4.61;100.00
64354;BME280;50681;53.334;-6.536;2023-02-28T07:11:03;103279.50;;;4.46;100.00
64354;BME280;50681;53.334;-6.536;2023-02-28T07:13:29;103261.84;;;4.37;100.00
64354;BME280;50681;53.334;-6.536;2023-02-28T07:18:20;103267.50;;;4.42;100.00
64354;BME280;50681;53.334;-6.536;2023-02-28T07:20:46;103293.22;;;4.43;100.00
64354;BME280;50681;53.334;-6.536;2023-02-28T07:23:11;103291.56;;;4.42;100.00
64354;BME280;50681;53.334;-6.536;2023-02-28T07:25:36;103282.09;;;4.31;100.00
64354;BME280;50681;53.334;-6.536;2023-02-28T07:28:02;103276.66;;;4.24;100.00
64354;BME280;50681;53.334;-6.536;2023-02-28T07:30:27;103283.66;;;4.25;100.00
64354;BME280;50681;53.334;-6.536;2023-02-28T07:32:53;103277.84;;;4.22;100.00
64354;BME280;50681;53.334;-6.536;2023-02-28T07:35:21;103286.34;;;4.25;100.00
64354;BME280;50681;53.334;-6.536;2023-02-28T07:37:47;103280.88;;;4.19;100.00
64354;BME280;50681;53.334;-6.536;2023-02-28T07:40:13;103292.69;;;4.24;100.00
64354;BME280;50681;53.334;-6.536;2023-02-28T07:42:40;103308.63;;;4.41;100.00
64354;BME280;50681;53.334;-6.536;2023-02-28T07:45:06;103312.19;;;4.33;100.00
64354;BME280;50681;53.334;-6.536;2023-02-28T07:47:32;103303.34;;;4.33;100.00
64354;BME280;50681;53.334;-6.536;2023-02-28T07:49:58;103293.06;;;4.21;100.00
64354;BME280;50681;53.334;-6.536;2023-02-28T07:52:23;103291.19;;;4.22;100.00
64354;BME280;50681;53.334;-6.536;2023-02-28T07:54:50;103308.84;;;4.31;100.00
64354;BME280;50681;53.334;-6.536;2023-02-28T07:57:15;103309.69;;;4.32;100.00
64354;BME280;50681;53.334;-6.536;2023-02-28T07:59:41;103316.38;;;4.36;100.00
64354;BME280;50681;53.334;-6.536;2023-02-28T08:02:06;103310.78;;;4.22;100.00
64354;BME280;50681;53.334;-6.536;2023-02-28T08:04:32;103333.22;;;4.36;100.00
64354;BME280;50681;53.334;-6.536;2023-02-28T08:06:58;103319.56;;;4.31;100.00
64354;BME280;50681;53.334;-6.536;2023-02-28T08:09:23;103339.72;;;4.42;100.00
64354;BME280;50681;53.334;-6.536;2023-02-28T08:11:49;103337.41;;;4.39;100.00
64354;BME280;50681;53.334;-6.536;2023-02-28T08:14:15;103315.75;;;4.25;100.00
64354;BME280;50681;53.334;-6.536;2023-02-28T08:16:41;103346.38;;;4.46;100.00
64354;BME280;50681;53.334;-6.536;2023-02-28T08:19:08;103337.69;;;4.44;100.00
64354;BME280;50681;53.334;-6.536;2023-02-28T08:21:33;103311.38;;;4.33;100.00
64354;BME280;50681;53.334;-6.536;2023-02-28T08:24:27;103345.91;;;4.66;100.00
64354;BME280;50681;53.334;-6.536;2023-02-28T08:26:52;103325.06;;;4.53;100.00
64354;BME280;50681;53.334;-6.536;2023-02-28T08:29:19;103338.31;;;4.69;100.00
64354;BME280;50681;53.334;-6.536;2023-02-28T08:31:44;103327.63;;;4.69;100.00
64354;BME280;50681;53.334;-6.536;2023-02-28T08:34:12;103316.91;;;4.69;100.00
64354;BME280;50681;53.334;-6.536;2023-02-28T08:36:38;103307.78;;;4.64;100.00
64354;BME280;50681;53.334;-6.536;2023-02-28T08:39:04;103314.25;;;4.69;100.00
64354;BME280;50681;53.334;-6.536;2023-02-28T08:41:30;103311.19;;;4.73;100.00
64354;BME280;50681;53.334;-6.536;2023-02-28T08:43:56;103322.84;;;4.80;100.00
64354;BME280;50681;53.334;-6.536;2023-02-28T08:46:23;103327.22;;;4.96;100.00
64354;BME280;50681;53.334;-6.536;2023-02-28T08:48:54;103321.88;;;4.96;100.00
64354;BME280;50681;53.334;-6.536;2023-02-28T08:51:20;103330.56;;;5.13;100.00
64354;BME280;50681;53.334;-6.536;2023-02-28T08:53:52;103341.19;;;5.21;100.00
64354;BME280;50681;53.334;-6.536;2023-02-28T08:56:18;103300.47;;;4.96;100.00
64354;BME280;50681;53.334;-6.536;2023-02-28T08:58:45;103333.81;;;5.23;100.00
64354;BME280;50681;53.334;-6.536;2023-02-28T09:01:13;103328.66;;;5.22;100.00
64354;BME280;50681;53.334;-6.536;2023-02-28T09:03:40;103328.16;;;5.33;100.00
64354;BME280;50681;53.334;-6.536;2023-02-28T09:06:23;103335.63;;;5.53;100.00
64354;BME280;50681;53.334;-6.536;2023-02-28T09:08:50;103318.09;;;5.50;100.00
64354;BME280;50681;53.334;-6.536;2023-02-28T09:11:16;103318.72;;;5.52;100.00
64354;BME280;50681;53.334;-6.536;2023-02-28T09:13:42;103314.66;;;5.56;100.00
64354;BME280;50681;53.334;-6.536;2023-02-28T09:16:11;103317.13;;;5.58;100.00
64354;BME280;50681;53.334;-6.536;2023-02-28T09:18:38;103325.94;;;5.67;100.00
64354;BME280;50681;53.334;-6.536;2023-02-28T09:21:04;103325.56;;;5.70;100.00
64354;BME280;50681;53.334;-6.536;2023-02-28T09:23:30;103302.66;;;5.52;100.00
64354;BME280;50681;53.334;-6.536;2023-02-28T09:25:56;103318.91;;;5.66;100.00
64354;BME280;50681;53.334;-6.536;2023-02-28T09:28:21;103314.94;;;5.62;100.00
64354;BME280;50681;53.334;-6.536;2023-02-28T09:30:50;103322.03;;;5.69;100.00
64354;BME280;50681;53.334;-6.536;2023-02-28T09:33:17;103336.97;;;5.79;100.00
64354;BME280;50681;53.334;-6.536;2023-02-28T09:35:46;103342.34;;;5.94;100.00
64354;BME280;50681;53.334;-6.536;2023-02-28T09:38:12;103320.53;;;5.82;100.00
64354;BME280;50681;53.334;-6.536;2023-02-28T09:40:44;103312.22;;;5.77;100.00
64354;BME280;50681;53.334;-6.536;2023-02-28T09:43:14;103337.16;;;5.92;100.00
64354;BME280;50681;53.334;-6.536;2023-02-28T09:45:42;103334.00;;;6.03;100.00
64354;BME280;50681;53.334;-6.536;2023-02-28T09:48:16;103288.34;;;5.82;100.00
64354;BME280;50681;53.334;-6.536;2023-02-28T09:51:02;103346.16;;;6.21;100.00
64354;BME280;50681;53.334;-6.536;2023-02-28T09:56:02;103313.44;;;6.11;100.00
64354;BME280;50681;53.334;-6.536;2023-02-28T10:01:52;103338.84;;;6.30;100.00
64354;BME280;50681;53.334;-6.536;2023-02-28T10:04:58;103306.16;;;6.26;100.00
64354;BME280;50681;53.334;-6.536;2023-02-28T10:12:46;103320.47;;;6.55;100.00
64354;BME280;50681;53.334;-6.536;2023-02-28T10:15:16;103312.16;;;6.50;100.00
64354;BME280;50681;53.334;-6.536;2023-02-28T10:17:45;103317.22;;;6.60;100.00
64354;BME280;50681;53.334;-6.536;2023-02-28T10:20:19;103350.13;;;6.69;100.00
64354;BME280;50681;53.334;-6.536;2023-02-28T10:23:08;103336.75;;;6.75;100.00
64354;BME280;50681;53.334;-6.536;2023-02-28T10:25:38;103350.19;;;6.75;100.00
64354;BME280;50681;53.334;-6.536;2023-02-28T10:28:12;103341.75;;;6.79;100.00
64354;BME280;50681;53.334;-6.536;2023-02-28T10:30:40;103352.03;;;6.75;100.00
64354;BME280;50681;53.334;-6.536;2023-02-28T10:33:18;103323.03;;;6.64;100.00
64354;BME280;50681;53.334;-6.536;2023-02-28T10:35:44;103337.72;;;6.68;100.00
64354;BME280;50681;53.334;-6.536;2023-02-28T10:38:16;103341.91;;;6.77;100.00
64354;BME280;50681;53.334;-6.536;2023-02-28T10:40:42;103303.72;;;6.53;100.00
64354;BME280;50681;53.334;-6.536;2023-02-28T10:43:28;103310.22;;;6.66;100.00
64354;BME280;50681;53.334;-6.536;2023-02-28T10:48:29;103338.94;;;6.94;100.00
64354;BME280;50681;53.334;-6.536;2023-02-28T10:50:55;103322.81;;;6.87;100.00
64354;BME280;50681;53.334;-6.536;2023-02-28T11:01:22;103331.63;;;7.09;100.00
64354;BME280;50681;53.334;-6.536;2023-02-28T11:03:50;103344.72;;;7.19;100.00
64354;BME280;50681;53.334;-6.536;2023-02-28T11:08:45;103333.09;;;7.12;100.00
64354;BME280;50681;53.334;-6.536;2023-02-28T11:11:11;103319.97;;;6.95;100.00
64354;BME280;50681;53.334;-6.536;2023-02-28T11:13:37;103334.69;;;7.06;100.00
64354;BME280;50681;53.334;-6.536;2023-02-28T11:16:08;103348.03;;;7.21;100.00
64354;BME280;50681;53.334;-6.536;2023-02-28T11:21:05;103314.38;;;6.97;100.00
64354;BME280;50681;53.334;-6.536;2023-02-28T11:23:33;103338.56;;;7.25;100.00
64354;BME280;50681;53.334;-6.536;2023-02-28T11:26:03;103317.16;;;7.10;100.00
64354;BME280;50681;53.334;-6.536;2023-02-28T11:28:33;103337.69;;;7.18;100.00
64354;BME280;50681;53.334;-6.536;2023-02-28T11:38:42;103306.38;;;7.03;100.00
64354;BME280;50681;53.334;-6.536;2023-02-28T11:43:59;103326.25;;;7.09;100.00
64354;BME280;50681;53.334;-6.536;2023-02-28T11:46:49;103330.97;;;7.07;100.00
64354;BME280;50681;53.334;-6.536;2023-02-28T11:51:56;103329.22;;;7.21;100.00
64354;BME280;50681;53.334;-6.536;2023-02-28T12:14:22;103332.72;;;7.21;100.00
64354;BME280;50681;53.334;-6.536;2023-02-28T12:27:36;103295.78;;;6.67;100.00
64354;BME280;50681;53.334;-6.536;2023-02-28T12:32:40;103311.28;;;6.93;100.00
64354;BME280;50681;53.334;-6.536;2023-02-28T12:35:13;103288.22;;;6.77;100.00
64354;BME280;50681;53.334;-6.536;2023-02-28T12:37:44;103316.78;;;6.85;100.00
64354;BME280;50681;53.334;-6.536;2023-02-28T12:40:23;103291.16;;;6.82;100.00
64354;BME280;50681;53.334;-6.536;2023-02-28T12:42:54;103301.94;;;6.89;100.00
64354;BME280;50681;53.334;-6.536;2023-02-28T12:45:42;103301.34;;;6.94;100.00
64354;BME280;50681;53.334;-6.536;2023-02-28T12:48:13;103307.31;;;6.89;100.00
64354;BME280;50681;53.334;-6.536;2023-02-28T12:50:40;103303.00;;;6.95;100.00
64354;BME280;50681;53.334;-6.536;2023-02-28T13:01:12;103304.81;;;7.23;100.00
64354;BME280;50681;53.334;-6.536;2023-02-28T13:09:16;103283.13;;;7.73;100.00
64354;BME280;50681;53.334;-6.536;2023-02-28T13:11:46;103287.31;;;7.89;100.00
64354;BME280;50681;53.334;-6.536;2023-02-28T13:14:36;103252.94;;;7.71;100.00
64354;BME280;50681;53.334;-6.536;2023-02-28T13:19:58;103265.75;;;7.75;100.00
64354;BME280;50681;53.334;-6.536;2023-02-28T13:22:52;103248.28;;;7.44;100.00
64354;BME280;50681;53.334;-6.536;2023-02-28T13:27:59;103251.53;;;7.33;100.00
64354;BME280;50681;53.334;-6.536;2023-02-28T13:33:32;103268.13;;;7.37;100.00
64354;BME280;50681;53.334;-6.536;2023-02-28T13:38:43;103254.78;;;7.15;100.00
64354;BME280;50681;53.334;-6.536;2023-02-28T13:44:13;103246.84;;;7.48;100.00
64354;BME280;50681;53.334;-6.536;2023-02-28T13:49:23;103238.44;;;7.78;100.00
64354;BME280;50681;53.334;-6.536;2023-02-28T14:05:36;103231.97;;;7.04;100.00
64354;BME280;50681;53.334;-6.536;2023-02-28T14:08:14;103221.94;;;6.84;100.00
64354;BME280;50681;53.334;-6.536;2023-02-28T14:10:45;103220.13;;;6.91;100.00
64354;BME280;50681;53.334;-6.536;2023-02-28T14:16:06;103227.00;;;7.01;100.00
64354;BME280;50681;53.334;-6.536;2023-02-28T14:18:34;103239.84;;;7.05;100.00
64354;BME280;50681;53.334;-6.536;2023-02-28T14:21:29;103244.44;;;7.12;100.00
64354;BME280;50681;53.334;-6.536;2023-02-28T14:27:02;103238.69;;;7.21;100.00
64354;BME280;50681;53.334;-6.536;2023-02-28T14:37:38;103233.06;;;7.16;100.00
64354;BME280;50681;53.334;-6.536;2023-02-28T14:40:15;103237.19;;;7.12;100.00
64354;BME280;50681;53.334;-6.536;2023-02-28T14:42:54;103223.75;;;7.12;100.00
64354;BME280;50681;53.334;-6.536;2023-02-28T14:45:22;103221.69;;;7.08;100.00
64354;BME280;50681;53.334;-6.536;2023-02-28T14:47:50;103240.50;;;7.14;100.00
64354;BME280;50681;53.334;-6.536;2023-02-28T14:50:21;103229.69;;;7.01;100.00
64354;BME280;50681;53.334;-6.536;2023-02-28T14:52:51;103224.47;;;6.93;100.00
64354;BME280;50681;53.334;-6.536;2023-02-28T14:55:19;103227.94;;;6.86;100.00
64354;BME280;50681;53.334;-6.536;2023-02-28T15:03:39;103219.66;;;6.81;100.00
64354;BME280;50681;53.334;-6.536;2023-02-28T15:06:15;103229.09;;;7.05;100.00
64354;BME280;50681;53.334;-6.536;2023-02-28T15:08:44;103231.19;;;7.10;100.00
64354;BME280;50681;53.334;-6.536;2023-02-28T15:11:18;103227.53;;;7.25;100.00
64354;BME280;50681;53.334;-6.536;2023-02-28T15:13:49;103227.13;;;7.21;100.00
64354;BME280;50681;53.334;-6.536;2023-02-28T15:16:22;103232.88;;;7.18;100.00
64354;BME280;50681;53.334;-6.536;2023-02-28T15:19:02;103226.59;;;7.04;100.00
64354;BME280;50681;53.334;-6.536;2023-02-28T15:21:32;103219.78;;;7.01;100.00
64354;BME280;50681;53.334;-6.536;2023-02-28T15:24:04;103207.09;;;6.88;100.00
64354;BME280;50681;53.334;-6.536;2023-02-28T15:26:38;103217.69;;;6.97;100.00
64354;BME280;50681;53.334;-6.536;2023-02-28T15:29:15;103198.38;;;6.80;100.00
64354;BME280;50681;53.334;-6.536;2023-02-28T15:32:00;103219.91;;;6.86;100.00
64354;BME280;50681;53.334;-6.536;2023-02-28T15:34:39;103213.31;;;6.89;100.00
64354;BME280;50681;53.334;-6.536;2023-02-28T15:37:48;103215.31;;;6.80;100.00
64354;BME280;50681;53.334;-6.536;2023-02-28T15:42:39;103220.59;;;6.67;100.00
64354;BME280;50681;53.334;-6.536;2023-02-28T15:45:25;103209.00;;;6.59;100.00
64354;BME280;50681;53.334;-6.536;2023-02-28T15:47:52;103218.06;;;6.58;100.00